Willow Bend, West Virginia
Current Conditions -  °F | °C
As of 3:55 AM on Friday 24 Oct 2014 (Local Time) from KLWB Reporting Station
Haze Haze  
Wind Chill: 38°   Ceiling: Unl
Heat Index: 38°   Visibility: 4mi
Dew Point: 37°   Wind: 3mph
Humidity: 95%   Direction: 200°SSW
Pressure: 30.08"   Gusts: NA
Location:  37.5611°N, 80.5102°W
Report Text: KLWB 240755Z AUTO 20003KT 4SM BR CLR 03/03 A3008 RMK AO2 T00340026
Loading
Personal Weather Stations






























Interactive Weather Map New forecast layout! Learn more

10-Day Weather Forecast

Advertisements
Track Severe Weather on mobile